createdAt,value
2019-06-01T00:02:35.024Z,8.23
2019-06-01T00:06:40.680Z,5.67
2019-06-01T00:10:45.332Z,9.23
2019-06-01T00:14:50.038Z,7.40
2019-06-01T00:18:54.618Z,8.53
2019-06-01T00:22:59.320Z,8.40
2019-06-01T00:27:03.883Z,10.03
2019-06-01T00:31:08.440Z,7.20
2019-06-01T00:35:12.996Z,8.70
2019-06-01T00:39:17.520Z,9.37
2019-06-01T00:43:22.083Z,9.77
2019-06-01T00:47:26.646Z,8.10
2019-06-01T00:51:31.297Z,9.13
2019-06-01T00:55:35.865Z,7.63
2019-06-01T00:59:40.421Z,10.83
2019-06-01T01:03:45.964Z,7.80
2019-06-01T01:07:51.491Z,9.80
2019-06-01T01:11:56.705Z,15.87
2019-06-01T01:16:01.279Z,8.63
2019-06-01T01:20:06.564Z,9.87
2019-06-01T01:28:23.954Z,10.77
2019-06-01T01:32:28.205Z,9.00
2019-06-01T01:36:33.659Z,11.47
2019-06-01T01:40:38.205Z,11.50
2019-06-01T01:44:42.758Z,12.73
2019-06-01T01:48:47.331Z,12.20
2019-06-01T01:52:52.734Z,10.07
2019-06-01T01:56:58.231Z,11.60
2019-06-01T02:01:20.746Z,8.33
2019-06-01T02:05:09.779Z,11.00
2019-06-01T02:09:14.344Z,9.10
2019-06-01T02:13:18.908Z,10.33
2019-06-01T02:17:23.468Z,10.37
2019-06-01T02:21:28.029Z,11.57
2019-06-01T02:25:32.691Z,13.80
2019-06-01T02:29:37.256Z,14.97
2019-06-01T02:33:41.830Z,15.40
2019-06-01T02:37:46.402Z,12.77
2019-06-01T02:41:50.970Z,8.50
2019-06-01T02:45:56.321Z,12.33
2019-06-01T02:50:01.381Z,12.27
2019-06-01T02:54:06.330Z,12.30
2019-06-01T02:58:11.023Z,14.30
2019-06-01T03:02:15.694Z,14.20
2019-06-01T03:06:20.848Z,14.90
2019-06-01T03:10:25.521Z,10.90
2019-06-01T03:14:31.610Z,17.17
2019-06-01T03:18:37.573Z,12.17
2019-06-01T03:22:43.469Z,12.10
2019-06-01T03:26:48.213Z,12.57
2019-06-01T03:30:52.777Z,9.90
2019-06-01T03:34:57.341Z,12.10
2019-06-01T03:39:03.946Z,15.37
2019-06-01T03:43:09.343Z,13.27
2019-06-01T03:47:14.009Z,13.00
2019-06-01T03:51:18.578Z,14.87
2019-06-01T03:55:23.140Z,14.93
2019-06-01T03:59:27.745Z,13.90
2019-06-01T04:03:32.366Z,13.27
2019-06-01T04:07:38.866Z,15.23
2019-06-01T04:11:43.107Z,15.00
2019-06-01T04:15:47.680Z,16.67
2019-06-01T04:19:52.241Z,17.53
2019-06-01T04:23:56.872Z,19.27
2019-06-01T04:28:02.105Z,13.93
2019-06-01T04:32:06.917Z,20.77
2019-06-01T04:36:11.501Z,13.57
2019-06-01T04:40:16.064Z,15.83
2019-06-01T04:44:20.627Z,15.47
2019-06-01T04:48:25.178Z,15.80
2019-06-01T04:52:29.693Z,17.83
2019-06-01T04:56:34.292Z,15.33
2019-06-01T05:00:38.869Z,18.83
2019-06-01T05:04:43.784Z,16.37
2019-06-01T05:08:48.354Z,19.93
2019-06-01T05:12:52.862Z,25.27
2019-06-01T05:16:57.431Z,18.07
2019-06-01T05:21:02.013Z,23.23
2019-06-01T05:25:08.811Z,17.80
2019-06-01T05:29:13.710Z,21.07
2019-06-01T05:33:35.294Z,15.40
2019-06-01T05:37:24.906Z,17.03
2019-06-01T05:41:29.504Z,18.13
2019-06-01T05:45:34.080Z,17.40
2019-06-01T05:49:38.648Z,22.10
2019-06-01T05:53:43.188Z,13.60
2019-06-01T05:57:47.792Z,16.57
2019-06-01T06:01:52.357Z,14.97
2019-06-01T06:05:56.944Z,12.20
2019-06-01T06:10:01.508Z,18.33
2019-06-01T06:14:06.153Z,24.37
2019-06-01T06:18:11.623Z,15.40
2019-06-01T06:22:16.300Z,13.78
2019-06-01T06:26:22.380Z,15.38
2019-06-01T06:30:27.108Z,12.33
2019-06-01T06:34:31.625Z,12.07
2019-06-01T06:38:36.189Z,13.00
2019-06-01T06:42:40.737Z,11.80
2019-06-01T06:46:45.296Z,9.57
2019-06-01T06:50:49.842Z,14.67
2019-06-01T06:54:54.373Z,13.73
2019-06-01T06:58:58.953Z,14.20
2019-06-01T07:03:03.516Z,8.30
2019-06-01T07:07:08.082Z,9.13
2019-06-01T07:11:12.649Z,9.03
2019-06-01T07:15:17.195Z,8.43
2019-06-01T07:19:21.764Z,12.37
2019-06-01T07:23:26.296Z,9.63
2019-06-01T07:27:30.848Z,11.03
2019-06-01T07:31:35.418Z,7.90
2019-06-01T07:35:39.938Z,7.97
2019-06-01T07:39:44.497Z,7.20
2019-06-01T07:43:49.069Z,8.33
2019-06-01T07:47:53.597Z,7.73
2019-06-01T07:51:58.182Z,6.20
2019-06-01T07:56:02.689Z,6.57
2019-06-01T08:00:07.626Z,8.03
2019-06-01T08:04:12.207Z,6.90
2019-06-01T08:08:16.788Z,8.00
2019-06-01T08:12:21.315Z,7.10
2019-06-01T08:16:25.983Z,5.40
2019-06-01T08:20:30.557Z,4.93
2019-06-01T08:24:35.128Z,6.63
2019-06-01T08:28:39.640Z,5.37
2019-06-01T08:32:44.192Z,6.07
2019-06-01T08:36:48.766Z,4.37
2019-06-01T08:40:53.306Z,6.60
2019-06-01T08:44:57.862Z,5.93
2019-06-01T08:49:02.369Z,4.43
2019-06-01T08:53:07.023Z,8.07
2019-06-01T08:57:11.558Z,8.77
2019-06-01T09:01:16.151Z,5.87
2019-06-01T09:05:24.338Z,7.07
2019-06-01T09:09:26.958Z,5.50
2019-06-01T09:13:31.538Z,5.33
2019-06-01T09:17:36.085Z,3.90
2019-06-01T09:21:40.648Z,5.47
2019-06-01T09:25:45.165Z,5.40
2019-06-01T09:29:49.728Z,5.27
2019-06-01T09:33:54.785Z,4.70
2019-06-01T09:37:59.329Z,5.97
2019-06-01T09:42:03.896Z,5.63
2019-06-01T09:46:08.420Z,5.10
2019-06-01T09:50:12.969Z,7.57
2019-06-01T09:54:17.580Z,9.87
2019-06-01T09:58:22.172Z,7.40
2019-06-01T10:02:27.919Z,6.70
2019-06-01T10:06:32.628Z,6.23
2019-06-01T10:10:38.084Z,4.27
2019-06-01T10:14:42.772Z,4.10
2019-06-01T10:18:47.333Z,5.03
2019-06-01T10:22:51.904Z,4.50
2019-06-01T10:26:56.441Z,4.20
2019-06-01T10:31:01.017Z,6.40
2019-06-01T10:35:05.907Z,5.73
2019-06-01T10:39:10.485Z,7.10
2019-06-01T10:43:15.109Z,6.93
2019-06-01T10:47:19.629Z,4.57
2019-06-01T10:51:24.520Z,4.40
2019-06-01T10:55:29.078Z,4.57
2019-06-01T10:59:34.291Z,4.70
2019-06-01T11:03:38.934Z,5.30
2019-06-01T11:07:43.451Z,3.80
2019-06-01T11:11:48.025Z,4.50
2019-06-01T11:15:52.584Z,5.33
2019-06-01T11:19:57.141Z,4.53
2019-06-01T11:24:01.739Z,2.70
2019-06-01T11:28:06.377Z,3.40
2019-06-01T11:32:10.905Z,8.53
2019-06-01T11:36:15.468Z,5.50
2019-06-01T11:40:20.033Z,2.50
2019-06-01T11:44:24.616Z,4.53
2019-06-01T11:48:29.211Z,3.93
2019-06-01T11:52:34.869Z,5.50
2019-06-01T11:56:39.502Z,5.67
2019-06-01T12:00:44.233Z,3.83
2019-06-01T12:04:48.788Z,2.97
2019-06-01T12:08:53.349Z,3.20
2019-06-01T12:12:57.916Z,5.53
2019-06-01T12:17:02.479Z,5.80
2019-06-01T12:21:08.415Z,4.33
2019-06-01T12:25:13.485Z,3.53
2019-06-01T12:29:18.057Z,5.40
2019-06-01T12:33:22.628Z,4.03
2019-06-01T12:37:45.415Z,2.47
2019-06-01T12:41:33.902Z,3.80
2019-06-01T12:45:39.588Z,6.60
2019-06-01T12:49:52.536Z,4.10
2019-06-01T12:53:58.548Z,2.30
2019-06-01T12:58:08.909Z,4.33
2019-06-01T13:02:13.545Z,3.50
2019-06-01T13:06:19.177Z,2.40
2019-06-01T13:10:23.769Z,1.90
2019-06-01T13:14:28.332Z,2.20
2019-06-01T13:18:32.901Z,2.07
2019-06-01T13:22:37.524Z,3.50
2019-06-01T13:26:43.634Z,3.53
2019-06-01T13:30:49.656Z,4.43
2019-06-01T13:34:54.584Z,2.33
2019-06-01T13:38:59.607Z,3.70
2019-06-01T13:43:04.160Z,2.10
2019-06-01T13:47:08.704Z,4.30
2019-06-01T13:51:13.265Z,2.80
2019-06-01T13:55:17.807Z,2.73
2019-06-01T13:59:22.365Z,3.50
2019-06-01T14:03:26.925Z,3.63
2019-06-01T14:07:31.481Z,3.33
2019-06-01T14:11:36.092Z,2.80
2019-06-01T14:15:40.728Z,2.03
2019-06-01T14:19:45.648Z,5.50
2019-06-01T14:23:50.413Z,6.33
2019-06-01T14:27:56.324Z,2.80
2019-06-01T14:32:01.069Z,2.93
2019-06-01T14:36:05.624Z,2.97
2019-06-01T14:40:10.305Z,4.60
2019-06-01T14:44:14.857Z,3.10
2019-06-01T14:48:19.423Z,2.50
2019-06-01T14:52:23.979Z,4.13
2019-06-01T14:56:28.564Z,3.10
2019-06-01T15:00:33.121Z,3.00
2019-06-01T15:04:37.691Z,3.20
2019-06-01T15:08:42.237Z,3.17
2019-06-01T15:12:52.481Z,2.20
2019-06-01T15:16:53.980Z,2.10
2019-06-01T15:20:58.644Z,5.30
2019-06-01T15:25:03.682Z,4.17
2019-06-01T15:29:08.453Z,2.37
2019-06-01T15:33:13.009Z,3.03
2019-06-01T15:37:17.605Z,3.07
2019-06-01T15:41:22.160Z,3.23
2019-06-01T15:45:26.716Z,3.47
2019-06-01T15:49:31.298Z,3.80
2019-06-01T15:53:35.858Z,2.40
2019-06-01T15:57:40.468Z,3.00
2019-06-01T16:01:45.007Z,2.30
2019-06-01T16:05:49.574Z,6.07
2019-06-01T16:09:55.330Z,2.33
2019-06-01T16:13:59.997Z,4.53
2019-06-01T16:18:04.682Z,5.20
2019-06-01T16:22:09.247Z,3.27
2019-06-01T16:26:16.347Z,1.97
2019-06-01T16:30:20.119Z,4.83
2019-06-01T16:34:24.699Z,2.23
2019-06-01T16:38:29.281Z,10.47
2019-06-01T16:42:33.828Z,12.27
2019-06-01T16:46:38.377Z,2.17
2019-06-01T16:50:42.956Z,2.20
2019-06-01T16:54:47.540Z,2.17
2019-06-01T16:58:52.156Z,2.13
2019-06-01T17:02:56.924Z,2.47
2019-06-01T17:07:05.009Z,3.00
2019-06-01T17:11:07.698Z,2.70
2019-06-01T17:15:14.203Z,3.23
2019-06-01T17:19:18.757Z,3.40
2019-06-01T17:23:27.479Z,7.63
2019-06-01T17:27:29.554Z,2.20
2019-06-01T17:31:34.077Z,3.57
2019-06-01T17:35:38.742Z,2.83
2019-06-01T17:39:43.329Z,1.70
2019-06-01T17:43:48.009Z,2.67
2019-06-01T17:47:52.529Z,1.97
2019-06-01T17:51:57.109Z,2.20
2019-06-01T17:56:01.916Z,4.40
2019-06-01T18:00:07.743Z,5.53
2019-06-01T18:04:12.360Z,5.80
2019-06-01T18:08:16.913Z,4.10
2019-06-01T18:12:21.449Z,2.57
2019-06-01T18:16:26.832Z,5.23
2019-06-01T18:20:31.814Z,2.13
2019-06-01T18:24:36.353Z,3.00
2019-06-01T18:28:40.855Z,2.10
2019-06-01T18:32:45.401Z,1.80
2019-06-01T18:36:49.960Z,1.87
2019-06-01T18:41:08.819Z,1.70
2019-06-01T18:45:00.907Z,2.50
2019-06-01T18:49:05.803Z,2.80
2019-06-01T18:53:10.386Z,4.53
2019-06-01T18:57:20.563Z,4.57
2019-06-01T19:01:21.419Z,2.43
2019-06-01T19:05:26.034Z,2.30
2019-06-01T19:09:30.611Z,3.20
2019-06-01T19:13:35.092Z,1.93
2019-06-01T19:17:39.663Z,3.00
2019-06-01T19:21:44.212Z,6.20
2019-06-01T19:25:50.002Z,3.10
2019-06-01T19:29:54.560Z,2.70
2019-06-01T19:33:59.112Z,2.90
2019-06-01T19:38:03.972Z,4.43
2019-06-01T19:42:09.168Z,3.70
2019-06-01T19:46:13.993Z,2.50
2019-06-01T19:50:18.560Z,5.23
2019-06-01T19:54:23.074Z,3.57
2019-06-01T19:58:27.664Z,2.80
2019-06-01T20:02:34.347Z,6.20
2019-06-01T20:06:38.432Z,9.50
2019-06-01T20:10:42.968Z,4.07
2019-06-01T20:14:47.520Z,5.13
2019-06-01T20:18:52.088Z,6.47
2019-06-01T20:22:56.666Z,6.87
2019-06-01T20:27:01.220Z,5.63
2019-06-01T20:31:05.736Z,4.47
2019-06-01T20:35:11.731Z,8.83
2019-06-01T20:39:16.460Z,6.23
2019-06-01T20:43:21.027Z,5.90
2019-06-01T20:47:25.580Z,6.73
2019-06-01T20:51:30.105Z,9.90
2019-06-01T20:55:34.663Z,6.60
2019-06-01T20:59:39.253Z,10.27
2019-06-01T21:03:43.920Z,5.90
2019-06-01T21:07:48.491Z,12.03
2019-06-01T21:11:52.372Z,14.03
2019-06-01T21:15:56.940Z,6.33
2019-06-01T21:20:04.667Z,6.47
2019-06-01T21:24:07.741Z,6.40
2019-06-01T21:28:14.847Z,5.17
2019-06-01T21:32:19.249Z,8.73
2019-06-01T21:36:23.872Z,7.60
2019-06-01T21:40:28.431Z,7.57
2019-06-01T21:44:32.980Z,5.47
2019-06-01T21:48:37.546Z,5.87
2019-06-01T21:52:42.061Z,7.27
2019-06-01T21:56:46.624Z,6.70
2019-06-01T22:00:51.424Z,5.63
2019-06-01T22:04:55.981Z,8.13
2019-06-01T22:09:00.579Z,6.13
2019-06-01T22:13:18.048Z,6.43
2019-06-01T22:17:11.313Z,7.20
2019-06-01T22:21:15.866Z,5.13
2019-06-01T22:25:20.932Z,4.13
2019-06-01T22:29:26.691Z,5.93
2019-06-01T22:33:31.228Z,6.00
2019-06-01T22:37:35.800Z,4.37
2019-06-01T22:41:40.385Z,5.77
2019-06-01T22:45:44.940Z,6.93
2019-06-01T22:49:49.489Z,4.27
2019-06-01T22:53:54.134Z,5.83
2019-06-01T22:57:58.742Z,7.73
2019-06-01T23:02:03.305Z,7.70
2019-06-01T23:06:07.867Z,7.17
2019-06-01T23:10:12.417Z,9.40
2019-06-01T23:14:16.992Z,10.37
2019-06-01T23:18:21.762Z,5.70
2019-06-01T23:22:26.413Z,8.13
2019-06-01T23:26:32.264Z,7.23
2019-06-01T23:30:37.072Z,6.97
2019-06-01T23:34:41.608Z,4.30
2019-06-01T23:38:46.132Z,7.77
2019-06-01T23:42:50.697Z,5.03
2019-06-01T23:46:55.264Z,7.13
2019-06-01T23:50:59.857Z,8.67
2019-06-01T23:55:04.576Z,6.97
2019-06-01T23:59:09.157Z,8.40
